Time;durP1;ratioP1;P1;durP2;ratioP2;P2;SDS_P1;SDS_P2;PMS_P1;PMS_P2;Temp;Humidity;BMP_temperature;BMP_pressure;BME280_temperature;BME280_humidity;BME280_pressure;Samples;Min_cycle;Max_cycle;Signal;HPM_P1;HPM_P2
2023/10/12 00:01:59;;;;;;;6.53;1.75;;;14.70;99.90;;;;;;4900803;29;20044;-82
2023/10/12 00:05:18;;;;;;;9.98;1.85;;;14.40;99.90;;;;;;4899164;29;20044;-83
2023/10/12 00:07:34;;;;;;;6.72;1.73;;;14.30;99.90;;;;;;4911242;29;20109;-82
2023/10/12 00:12:46;;;;;;;5.13;1.45;;;14.30;99.90;;;;;;4915829;29;20059;-82
2023/10/12 00:17:50;;;;;;;7.45;1.75;;;14.00;99.90;;;;;;4915382;29;20599;-83
2023/10/12 00:23:10;;;;;;;7.05;1.55;;;14.40;99.90;;;;;;4915767;29;20449;-83
2023/10/12 00:25:54;;;;;;;4.80;1.52;;;13.80;99.90;;;;;;4899623;29;20040;-82
2023/10/12 00:28:29;;;;;;;5.45;1.45;;;13.80;99.90;;;;;;4900123;29;20400;-82
2023/10/12 00:30:55;;;;;;;5.43;1.55;;;14.00;99.90;;;;;;4899806;29;20393;-83
2023/10/12 00:33:21;;;;;;;5.55;1.52;;;14.10;99.90;;;;;;4898814;29;20080;-83
2023/10/12 00:36:11;;;;;;;5.97;1.88;;;13.70;99.90;;;;;;4900251;29;20539;-83
2023/10/12 00:38:38;;;;;;;8.18;1.90;;;13.60;99.90;;;;;;4899288;29;20055;-83
2023/10/12 00:41:04;;;;;;;9.18;1.90;;;13.50;99.90;;;;;;4900067;29;20405;-82
2023/10/12 00:43:43;;;;;;;7.25;1.85;;;14.30;99.90;;;;;;4899668;29;20111;-82
2023/10/12 00:46:32;;;;;;;8.80;1.58;;;13.70;99.90;;;;;;4899069;29;20048;-83
2023/10/12 00:51:50;;;;;;;8.68;2.00;;;14.10;99.90;;;;;;4899806;29;20563;-82
2023/10/12 00:57:03;;;;;;;10.07;2.20;;;13.20;99.90;;;;;;4912383;29;20045;-83
2023/10/12 00:59:31;;;;;;;9.00;2.00;;;14.20;99.90;;;;;;4880341;29;20053;-82
2023/10/12 01:02:15;;;;;;;10.75;2.15;;;13.20;99.90;;;;;;4896518;29;20100;-82
2023/10/12 01:05:01;;;;;;;9.90;1.90;;;13.80;99.90;;;;;;4881244;29;20052;-82
2023/10/12 01:07:34;;;;;;;10.45;2.10;;;14.10;99.90;;;;;;4894814;29;20275;-83
2023/10/12 01:10:06;;;;;;;9.27;2.10;;;13.40;99.90;;;;;;4896565;29;20051;-82
2023/10/12 01:12:34;;;;;;;13.07;2.17;;;12.90;99.90;;;;;;4896126;29;20489;-83
2023/10/12 01:15:11;;;;;;;10.43;2.35;;;13.00;99.90;;;;;;4895840;29;20055;-83
2023/10/12 01:17:37;;;;;;;9.30;2.10;;;12.90;99.90;;;;;;4896373;29;20089;-83
2023/10/12 01:20:49;;;;;;;13.57;2.10;;;14.00;99.90;;;;;;4911833;29;20080;-83
2023/10/12 01:22:49;;;;;;;15.15;2.50;;;12.90;99.90;;;;;;4876670;29;20059;-82
2023/10/12 01:25:29;;;;;;;14.27;2.35;;;13.90;99.90;;;;;;4896115;29;20446;-82
2023/10/12 01:27:55;;;;;;;10.70;2.47;;;12.80;99.90;;;;;;4895922;29;20409;-82
2023/10/12 01:30:25;;;;;;;12.98;2.15;;;12.80;99.90;;;;;;4895956;29;20052;-83
2023/10/12 01:32:57;;;;;;;12.63;2.20;;;12.80;99.90;;;;;;4896069;29;20095;-82
2023/10/12 01:35:56;;;;;;;10.60;2.67;;;12.70;99.90;;;;;;4896442;29;20127;-83
2023/10/12 01:38:15;;;;;;;13.10;2.30;;;12.80;99.90;;;;;;4877838;29;20060;-83
2023/10/12 01:43:17;;;;;;;15.52;2.85;;;12.70;99.90;;;;;;4879814;29;20180;-83
2023/10/12 01:45:44;;;;;;;12.68;2.38;;;12.70;99.90;;;;;;4895993;29;20045;-83
2023/10/12 01:48:12;;;;;;;16.35;2.67;;;12.80;99.90;;;;;;4895863;29;20061;-83
2023/10/12 01:50:39;;;;;;;12.73;2.40;;;13.70;99.90;;;;;;4895424;29;20045;-83
2023/10/12 01:53:32;;;;;;;13.05;2.75;;;13.70;99.90;;;;;;4880494;29;20135;-83
2023/10/12 01:55:59;;;;;;;13.10;2.30;;;13.10;99.90;;;;;;4892851;29;20060;-83
2023/10/12 01:58:37;;;;;;;10.70;2.45;;;13.20;99.90;;;;;;4898737;29;20411;-83
2023/10/12 02:01:07;;;;;;;12.40;2.30;;;13.60;99.90;;;;;;4898654;29;20128;-82
2023/10/12 02:03:37;;;;;;;14.27;2.72;;;13.80;99.90;;;;;;4892804;29;20041;-83
2023/10/12 02:06:16;;;;;;;14.15;3.50;;;13.40;99.90;;;;;;4898648;29;20048;-83
2023/10/12 02:14:02;;;;;;;14.50;2.60;;;12.60;99.90;;;;;;4898949;29;20048;-83
2023/10/12 02:16:31;;;;;;;12.60;2.88;;;12.50;99.90;;;;;;4898621;29;20048;-83
2023/10/12 02:18:58;;;;;;;16.48;2.70;;;12.60;99.90;;;;;;4900146;29;20086;-82
2023/10/12 02:21:37;;;;;;;13.32;2.95;;;12.80;99.90;;;;;;4902246;29;20048;-82
2023/10/12 02:26:37;;;;;;;16.08;2.97;;;12.50;99.90;;;;;;4933963;29;20055;-83
2023/10/12 02:31:38;;;;;;;12.05;2.50;;;12.50;99.90;;;;;;4917430;29;20075;-82
2023/10/12 02:34:04;;;;;;;14.30;2.50;;;13.40;99.90;;;;;;4902208;29;20424;-83
2023/10/12 02:36:30;;;;;;;11.77;2.90;;;12.50;99.90;;;;;;4901994;29;20044;-83
2023/10/12 02:38:59;;;;;;;14.50;2.63;;;12.50;99.90;;;;;;4901549;29;20130;-83
2023/10/12 02:41:26;;;;;;;13.02;2.60;;;12.50;99.90;;;;;;4901689;29;20048;-83
2023/10/12 02:43:55;;;;;;;11.75;2.53;;;13.30;99.90;;;;;;4902430;29;20139;-83
2023/10/12 02:46:25;;;;;;;16.20;2.65;;;12.80;99.90;;;;;;4901298;29;20075;-83
2023/10/12 02:48:51;;;;;;;14.85;2.92;;;12.50;99.90;;;;;;4902269;29;20540;-83
2023/10/12 02:51:22;;;;;;;12.57;2.90;;;12.50;99.90;;;;;;4901723;29;20100;-82
2023/10/12 02:53:51;;;;;;;12.70;3.10;;;13.10;99.90;;;;;;4901050;29;20063;-83
2023/10/12 02:56:35;;;;;;;14.20;3.35;;;12.40;99.90;;;;;;4917337;29;20036;-83
2023/10/12 02:59:08;;;;;;;16.67;3.13;;;13.60;99.90;;;;;;4901606;29;20059;-83
2023/10/12 03:01:40;;;;;;;12.95;2.97;;;13.70;99.90;;;;;;4900607;29;20119;-83
2023/10/12 03:04:18;;;;;;;13.43;2.90;;;12.50;99.90;;;;;;4899266;29;20080;-82
2023/10/12 03:06:55;;;;;;;12.93;2.97;;;12.40;99.90;;;;;;4900978;29;20204;-83
2023/10/12 03:09:26;;;;;;;15.25;2.88;;;12.50;99.90;;;;;;4885842;29;20134;-83
2023/10/12 03:11:56;;;;;;;13.45;3.00;;;12.50;99.90;;;;;;4902016;29;20500;-83
2023/10/12 03:14:26;;;;;;;14.13;3.15;;;12.50;99.90;;;;;;4900448;29;20043;-83
2023/10/12 03:16:52;;;;;;;15.30;3.35;;;12.40;99.90;;;;;;4901731;29;20504;-83
2023/10/12 03:19:22;;;;;;;13.27;2.40;;;13.40;99.90;;;;;;4901496;29;20051;-83
2023/10/12 03:22:03;;;;;;;13.95;2.70;;;12.40;99.90;;;;;;4900822;29;20056;-83
2023/10/12 03:24:43;;;;;;;14.82;2.97;;;13.60;99.90;;;;;;4901300;29;20139;-83
2023/10/12 03:27:13;;;;;;;14.43;2.95;;;13.50;99.90;;;;;;4900092;29;20056;-83
2023/10/12 03:29:55;;;;;;;11.90;2.83;;;13.20;99.90;;;;;;4900773;29;20048;-83
2023/10/12 03:32:23;;;;;;;16.98;3.40;;;12.50;99.90;;;;;;4900887;29;20527;-84
2023/10/12 03:37:18;;;;;;;11.73;2.65;;;12.30;99.90;;;;;;4900861;29;20056;-83
2023/10/12 03:44:55;;;;;;;16.90;3.53;;;13.00;99.90;;;;;;4916896;29;20075;-83
2023/10/12 03:52:27;;;;;;;16.88;3.53;;;12.60;99.90;;;;;;4916498;29;20044;-83
2023/10/12 03:55:19;;;;;;;14.38;3.33;;;12.40;99.90;;;;;;4900816;29;20526;-83
2023/10/12 03:58:04;;;;;;;14.80;3.92;;;12.40;99.90;;;;;;4899771;29;20487;-83
2023/10/12 04:00:35;;;;;;;17.90;3.35;;;12.70;99.90;;;;;;4899878;29;20176;-83
2023/10/12 04:03:10;;;;;;;15.05;4.18;;;12.70;99.90;;;;;;4895704;29;20152;-83
2023/10/12 04:05:44;;;;;;;14.00;3.65;;;12.40;99.90;;;;;;4900272;29;20059;-83
2023/10/12 04:11:21;;;;;;;18.55;4.43;;;13.30;99.90;;;;;;4915724;29;20055;-83
2023/10/12 04:16:27;;;;;;;16.65;3.80;;;13.00;99.90;;;;;;4916318;29;20054;-83
2023/10/12 04:21:33;;;;;;;16.63;3.80;;;12.80;99.90;;;;;;4916033;29;20079;-83
2023/10/12 04:29:50;;;;;;;16.95;4.15;;;12.40;99.90;;;;;;4861740;29;20391;-82
2023/10/12 04:32:51;;;;;;;15.68;4.47;;;13.10;99.90;;;;;;4860235;29;20084;-83
2023/10/12 04:35:53;;;;;;;11.82;4.10;;;13.70;99.90;;;;;;4912815;29;20512;-83
2023/10/12 04:43:39;;;;;;;17.95;4.05;;;13.10;99.90;;;;;;4915080;29;20075;-83
2023/10/12 04:46:26;;;;;;;16.42;4.22;;;13.00;99.90;;;;;;4899188;29;20051;-83
2023/10/12 04:51:50;;;;;;;17.45;4.18;;;12.50;99.90;;;;;;4915072;29;20044;-83
2023/10/12 04:54:17;;;;;;;14.70;4.25;;;12.50;99.90;;;;;;4899609;29;20051;-83
2023/10/12 04:57:11;;;;;;;16.77;4.40;;;12.50;99.90;;;;;;4899661;29;20127;-83
2023/10/12 05:02:28;;;;;;;13.98;4.60;;;12.50;99.90;;;;;;4880327;29;20799;-82
2023/10/12 05:09:49;;;;;;;15.48;4.50;;;12.40;99.90;;;;;;4915323;29;20196;-83
2023/10/12 05:12:25;;;;;;;14.80;4.75;;;12.50;99.90;;;;;;4899032;29;20052;-83
2023/10/12 05:15:11;;;;;;;18.33;4.60;;;12.70;99.90;;;;;;4898889;29;20056;-83
2023/10/12 05:17:36;;;;;;;18.05;7.60;;;12.70;99.90;;;;;;4899498;29;20511;-83
2023/10/12 05:20:04;;;;;;;19.17;5.60;;;13.50;99.90;;;;;;4899038;29;20052;-83
2023/10/12 05:22:45;;;;;;;17.05;5.28;;;12.50;99.90;;;;;;4899240;29;20091;-83
2023/10/12 05:25:13;;;;;;;14.20;4.53;;;13.60;99.90;;;;;;4899331;29;20612;-83
2023/10/12 05:27:39;;;;;;;17.08;5.03;;;13.60;99.90;;;;;;4898712;29;20047;-83
2023/10/12 05:30:14;;;;;;;16.00;5.00;;;12.50;99.90;;;;;;4899362;29;20056;-83
2023/10/12 05:32:43;;;;;;;15.27;5.10;;;12.40;99.90;;;;;;4899590;29;20115;-83
2023/10/12 05:35:15;;;;;;;19.10;4.75;;;13.00;99.90;;;;;;4898365;29;20527;-83
2023/10/12 05:37:51;;;;;;;15.40;4.60;;;12.40;99.90;;;;;;4899217;29;20055;-83
2023/10/12 05:40:17;;;;;;;19.15;4.82;;;12.40;99.90;;;;;;4898936;29;20131;-82
2023/10/12 05:42:50;;;;;;;13.52;4.85;;;12.40;99.90;;;;;;4898421;29;20130;-83
2023/10/12 05:47:45;;;;;;;16.85;4.97;;;12.40;99.90;;;;;;4915876;29;20396;-82
2023/10/12 05:50:15;;;;;;;16.58;4.50;;;12.40;99.90;;;;;;4898574;29;20091;-82
2023/10/12 05:52:41;;;;;;;21.13;5.10;;;13.30;99.90;;;;;;4899233;29;20131;-83
2023/10/12 05:55:19;;;;;;;18.90;4.95;;;13.10;99.90;;;;;;4902044;29;20524;-82
2023/10/12 05:57:45;;;;;;;21.55;4.88;;;12.40;99.90;;;;;;4903226;29;20052;-83
2023/10/12 06:00:11;;;;;;;20.10;5.75;;;13.00;99.90;;;;;;4896025;29;20412;-82
2023/10/12 06:02:37;;;;;;;16.50;6.93;;;12.30;99.90;;;;;;4901866;29;20172;-82
2023/10/12 06:05:05;;;;;;;19.45;7.43;;;12.70;99.90;;;;;;4902692;29;20044;-83
2023/10/12 06:07:31;;;;;;;17.42;6.03;;;12.30;99.90;;;;;;4902623;29;20063;-83
2023/10/12 06:09:57;;;;;;;20.88;5.15;;;12.30;99.90;;;;;;4901797;29;20048;-83
2023/10/12 06:12:24;;;;;;;18.25;4.47;;;12.30;99.90;;;;;;4902437;29;20098;-83
2023/10/12 06:14:53;;;;;;;15.68;4.50;;;13.20;99.90;;;;;;4902464;29;20103;-83
2023/10/12 06:17:30;;;;;;;14.93;4.10;;;12.30;99.90;;;;;;4901579;29;20513;-82
2023/10/12 06:20:11;;;;;;;18.27;5.38;;;12.80;99.90;;;;;;4902440;29;20048;-83
2023/10/12 06:22:38;;;;;;;12.85;4.70;;;12.30;99.90;;;;;;4902411;29;20060;-83
2023/10/12 06:25:10;;;;;;;19.58;4.45;;;12.80;99.90;;;;;;4901310;29;20052;-83
2023/10/12 06:27:37;;;;;;;17.65;4.35;;;12.20;99.90;;;;;;4902327;29;20487;-79
2023/10/12 06:30:16;;;;;;;13.93;3.53;;;12.20;99.90;;;;;;4902270;29;20048;-80
2023/10/12 06:32:42;;;;;;;11.95;3.50;;;12.10;99.90;;;;;;4901881;29;20135;-80
2023/10/12 06:37:51;;;;;;;15.82;4.10;;;12.10;99.90;;;;;;4901782;29;20047;-80
2023/10/12 06:45:46;;;;;;;15.55;4.40;;;12.10;99.90;;;;;;4918500;29;20048;-80
2023/10/12 06:51:02;;;;;;;14.13;4.80;;;12.00;99.90;;;;;;4901889;29;20044;-80
2023/10/12 06:53:35;;;;;;;15.65;4.60;;;12.00;99.90;;;;;;4900208;29;20130;-80
2023/10/12 06:59:20;;;;;;;18.08;5.10;;;12.00;99.90;;;;;;4918294;29;20400;-79
2023/10/12 07:04:13;;;;;;;18.33;4.97;;;12.00;99.90;;;;;;4916902;29;20527;-80
2023/10/12 07:06:56;;;;;;;16.67;5.00;;;12.00;99.90;;;;;;4899775;29;20424;-80
2023/10/12 07:09:44;;;;;;;16.40;4.40;;;12.00;99.90;;;;;;4901614;29;20076;-79
2023/10/12 07:12:14;;;;;;;17.65;4.60;;;12.00;99.90;;;;;;4901377;29;20055;-80
2023/10/12 07:14:47;;;;;;;18.25;4.72;;;12.00;99.90;;;;;;4900784;29;20557;-80
2023/10/12 07:17:16;;;;;;;15.73;4.68;;;12.90;99.90;;;;;;4901274;29;20051;-80
2023/10/12 07:19:47;;;;;;;18.17;4.38;;;12.50;99.90;;;;;;4900816;29;20056;-80
2023/10/12 07:22:15;;;;;;;16.77;4.95;;;12.10;99.90;;;;;;4901217;29;20040;-80
2023/10/12 07:24:42;;;;;;;15.43;5.18;;;13.10;99.90;;;;;;4901380;29;20425;-80
2023/10/12 07:27:26;;;;;;;16.92;5.35;;;13.00;99.90;;;;;;4917004;29;20137;-80
2023/10/12 07:30:22;;;;;;;;;;;12.30;99.90;;;;;;4901617;29;20063;-80
2023/10/12 07:32:59;;;;;;;16.05;5.43;;;12.30;99.90;;;;;;4917904;29;19923;-80
2023/10/12 07:35:31;;;;;;;15.23;5.55;;;12.40;99.90;;;;;;4900381;29;20555;-80
2023/10/12 07:37:58;;;;;;;23.13;5.60;;;12.40;99.90;;;;;;4900880;29;20048;-80
2023/10/12 07:40:24;;;;;;;20.48;5.95;;;12.70;99.90;;;;;;4900701;29;20103;-80
2023/10/12 07:42:50;;;;;;;19.40;5.45;;;12.50;99.90;;;;;;4917219;29;20059;-80
2023/10/12 07:45:17;;;;;;;17.58;5.68;;;12.60;99.90;;;;;;4900501;29;20044;-80
2023/10/12 07:47:46;;;;;;;19.85;5.55;;;12.60;99.90;;;;;;4899732;29;20123;-80
2023/10/12 07:50:23;;;;;;;18.73;4.85;;;12.70;99.90;;;;;;4881699;29;20052;-80
2023/10/12 07:52:49;;;;;;;15.05;4.10;;;13.20;99.90;;;;;;4881823;29;20060;-81
2023/10/12 07:55:21;;;;;;;16.17;3.63;;;12.90;99.90;;;;;;4881066;29;20092;-82
2023/10/12 07:57:47;;;;;;;13.35;3.30;;;13.00;99.90;;;;;;4913553;29;20135;-83
2023/10/12 08:05:43;;;;;;;12.48;3.30;;;13.80;99.90;;;;;;4898750;29;20048;-80
2023/10/12 08:08:17;;;;;;;12.48;3.70;;;13.70;99.90;;;;;;4881855;29;20057;-80
2023/10/12 08:13:38;;;;;;;11.00;3.28;;;13.70;99.90;;;;;;4897089;29;20052;-81
2023/10/12 08:15:58;;;;;;;12.25;3.00;;;13.40;99.90;;;;;;4880382;29;20052;-80
2023/10/12 08:24:09;;;;;;;11.70;2.83;;;13.60;99.90;;;;;;4898124;29;20052;-80
2023/10/12 08:31:44;;;;;;;14.68;3.03;;;14.40;99.90;;;;;;4880534;29;20501;-81
2023/10/12 08:39:38;;;;;;;13.43;2.78;;;14.80;99.90;;;;;;4915658;29;20063;-81
2023/10/12 08:44:50;;;;;;;15.18;2.70;;;14.10;99.90;;;;;;4914779;29;20496;-81
2023/10/12 08:47:40;;;;;;;12.35;2.58;;;14.10;99.90;;;;;;4899449;29;20044;-82
2023/10/12 08:52:50;;;;;;;15.10;2.92;;;14.00;99.90;;;;;;4914681;29;20390;-81
2023/10/12 08:55:31;;;;;;;11.35;2.25;;;14.00;99.90;;;;;;4885603;29;20580;-82
2023/10/12 08:58:02;;;;;;;15.10;2.53;;;15.10;99.90;;;;;;4898959;29;20040;-81
2023/10/12 09:03:08;;;;;;;11.40;2.38;;;14.00;99.90;;;;;;4915357;29;20456;-81
2023/10/12 09:05:35;;;;;;;12.02;3.13;;;14.40;99.90;;;;;;4898952;29;20044;-81
2023/10/12 09:13:27;;;;;;;9.90;2.15;;;14.80;99.90;;;;;;4914379;29;20055;-82
2023/10/12 09:15:54;;;;;;;13.90;3.13;;;14.90;99.90;;;;;;4915361;29;20048;-83
2023/10/12 09:18:24;;;;;;;10.13;2.63;;;14.30;99.90;;;;;;4914575;29;20131;-84
2023/10/12 09:23:38;;;;;;;10.48;2.28;;;14.20;99.90;;;;;;4898735;29;20060;-82
2023/10/12 09:31:13;;;;;;;12.02;2.53;;;14.70;99.90;;;;;;4897971;29;20048;-82
2023/10/12 09:36:26;;;;;;;11.63;2.47;;;14.20;99.90;;;;;;4886921;29;20049;-83
2023/10/12 09:38:56;;;;;;;10.45;2.63;;;14.30;99.90;;;;;;4880244;29;20060;-83
2023/10/12 09:41:29;;;;;;;12.23;2.80;;;14.20;99.90;;;;;;4887143;29;20106;-82
2023/10/12 09:44:27;;;;;;;14.53;2.47;;;14.30;99.90;;;;;;4913909;29;20044;-82
2023/10/12 09:47:15;;;;;;;10.10;2.33;;;14.30;99.90;;;;;;4899037;29;20095;-82
2023/10/12 09:49:54;;;;;;;11.13;2.42;;;14.40;99.90;;;;;;4898751;29;20056;-81
2023/10/12 09:52:46;;;;;;;11.05;3.03;;;15.40;99.90;;;;;;4898631;29;20493;-81
2023/10/12 09:58:56;;;;;;;11.23;2.60;;;14.60;99.90;;;;;;4882562;29;20048;-82
2023/10/12 10:07:35;;;;;;;13.05;2.58;;;15.50;99.90;;;;;;4912628;29;20195;-81
2023/10/12 10:09:58;;;;;;;12.80;2.75;;;15.20;99.90;;;;;;4892655;29;20404;-81
2023/10/12 10:12:27;;;;;;;13.05;2.40;;;15.30;99.90;;;;;;4894642;29;20044;-81
2023/10/12 10:14:54;;;;;;;11.63;2.83;;;15.30;99.90;;;;;;4897830;29;20040;-82
2023/10/12 10:17:36;;;;;;;11.43;2.45;;;15.40;99.90;;;;;;4895945;29;20040;-81
2023/10/12 10:23:14;;;;;;;10.38;2.45;;;15.30;99.90;;;;;;4881528;29;20048;-81
2023/10/12 10:25:45;;;;;;;11.88;2.50;;;15.60;99.90;;;;;;4916204;29;20378;-81
2023/10/12 10:28:23;;;;;;;13.70;3.15;;;15.40;99.90;;;;;;4898746;29;20445;-81
2023/10/12 10:30:52;;;;;;;10.13;2.40;;;15.30;99.90;;;;;;4897331;29;20128;-81
2023/10/12 10:33:22;;;;;;;9.23;2.78;;;15.40;99.90;;;;;;4898157;29;20408;-81
2023/10/12 10:36:17;;;;;;;14.05;2.92;;;15.30;99.90;;;;;;4898785;29;20056;-81
2023/10/12 10:39:08;;;;;;;10.15;2.67;;;15.20;99.90;;;;;;4896347;29;20048;-81
2023/10/12 10:41:46;;;;;;;12.07;3.10;;;15.40;99.90;;;;;;4900136;29;20140;-82
2023/10/12 10:44:21;;;;;;;14.45;2.80;;;15.10;99.90;;;;;;4900656;29;20055;-84
2023/10/12 10:46:58;;;;;;;10.57;2.28;;;15.10;99.90;;;;;;4902254;29;20036;-84
2023/10/12 10:49:42;;;;;;;11.65;2.70;;;15.90;99.90;;;;;;4902003;29;20044;-84
2023/10/12 10:54:37;;;;;;;13.60;2.50;;;15.20;99.90;;;;;;4915366;29;20052;-83
2023/10/12 10:57:31;;;;;;;9.70;2.30;;;15.80;99.90;;;;;;4910339;29;20143;-84
2023/10/12 11:00:37;;;;;;;8.82;2.42;;;15.70;99.90;;;;;;4900344;29;20542;-84
2023/10/12 11:03:06;;;;;;;13.40;2.35;;;15.70;99.90;;;;;;4901626;29;20107;-83
2023/10/12 11:05:37;;;;;;;9.77;2.30;;;16.00;99.90;;;;;;4900535;29;20063;-83
2023/10/12 11:08:19;;;;;;;12.13;2.45;;;15.20;99.90;;;;;;4901768;29;20055;-84
2023/10/12 11:13:38;;;;;;;10.60;2.10;;;15.70;99.90;;;;;;4916575;29;20048;-83
2023/10/12 11:16:28;;;;;;;13.50;2.60;;;15.50;99.90;;;;;;4901116;29;20060;-83
2023/10/12 11:19:23;;;;;;;17.50;2.70;;;15.60;99.90;;;;;;4897220;29;20060;-83
2023/10/12 11:21:52;;;;;;;11.68;2.15;;;15.70;99.90;;;;;;4901912;29;20036;-84
2023/10/12 11:24:23;;;;;;;12.18;2.38;;;16.70;99.90;;;;;;4912319;29;20044;-84
2023/10/12 11:26:54;;;;;;;11.93;2.28;;;15.90;99.90;;;;;;4902488;29;20105;-84
2023/10/12 11:29:22;;;;;;;10.80;2.15;;;15.80;99.90;;;;;;4903488;29;20109;-84
2023/10/12 11:32:16;;;;;;;11.50;2.50;;;16.30;99.90;;;;;;4897554;29;20156;-84
2023/10/12 11:34:45;;;;;;;12.35;2.25;;;15.90;99.90;;;;;;4880891;29;20056;-82
2023/10/12 11:37:15;;;;;;;11.75;3.20;;;15.80;99.90;;;;;;4882405;29;20123;-83
2023/10/12 11:39:45;;;;;;;11.45;2.70;;;16.10;99.90;;;;;;4881938;29;20063;-83
2023/10/12 11:42:29;;;;;;;10.77;2.38;;;15.80;99.90;;;;;;4882239;29;20048;-83
2023/10/12 11:44:54;;;;;;;14.90;2.28;;;15.80;99.90;;;;;;4913752;29;20051;-83
2023/10/12 11:47:43;;;;;;;12.20;2.28;;;15.80;99.90;;;;;;4881454;29;20056;-82
2023/10/12 11:50:13;;;;;;;10.38;2.30;;;15.90;99.90;;;;;;4882325;29;20135;-82
2023/10/12 11:52:54;;;;;;;13.57;2.67;;;15.80;99.90;;;;;;4881381;29;20086;-82
2023/10/12 11:55:31;;;;;;;10.35;2.50;;;16.50;99.90;;;;;;4896595;29;20045;-82
2023/10/12 11:58:06;;;;;;;10.35;2.40;;;16.60;99.90;;;;;;4882468;29;20056;-82
2023/10/12 12:00:45;;;;;;;10.63;2.90;;;15.30;99.90;;;;;;4897590;29;20056;-82
2023/10/12 12:03:11;;;;;;;9.13;2.40;;;15.80;99.90;;;;;;4881768;29;20076;-82
2023/10/12 12:05:37;;;;;;;8.32;2.38;;;15.50;99.90;;;;;;4882217;29;20475;-83
2023/10/12 12:08:07;;;;;;;11.90;2.25;;;15.90;99.90;;;;;;4881345;29;20053;-82
2023/10/12 12:13:35;;;;;;;11.18;2.80;;;16.10;99.90;;;;;;4881242;29;20058;-83
2023/10/12 12:16:01;;;;;;;12.55;2.88;;;15.20;99.90;;;;;;4881092;29;20112;-83
2023/10/12 12:18:39;;;;;;;13.48;3.38;;;15.10;99.90;;;;;;4897177;29;20493;-83
2023/10/12 12:21:18;;;;;;;13.02;2.90;;;16.00;99.90;;;;;;4897327;29;20123;-83
2023/10/12 12:24:03;;;;;;;12.10;3.20;;;15.90;99.90;;;;;;4896576;29;20056;-84
2023/10/12 12:26:33;;;;;;;11.90;2.85;;;14.90;99.90;;;;;;4908702;29;20052;-84
2023/10/12 12:29:03;;;;;;;10.90;3.05;;;15.80;99.90;;;;;;4899346;29;20584;-83
2023/10/12 12:31:32;;;;;;;14.10;3.50;;;15.40;99.90;;;;;;4899965;29;20052;-83
2023/10/12 12:34:07;;;;;;;11.75;2.70;;;14.70;99.90;;;;;;4900076;29;20488;-83
2023/10/12 12:36:34;;;;;;;12.95;2.90;;;15.10;99.90;;;;;;4899753;29;20423;-83
2023/10/12 12:39:12;;;;;;;11.30;2.80;;;14.50;99.90;;;;;;4899957;29;20055;-83
2023/10/12 12:41:38;;;;;;;11.57;2.90;;;15.30;99.90;;;;;;4900690;29;20044;-83
2023/10/12 12:44:08;;;;;;;14.23;2.80;;;14.60;99.90;;;;;;4898524;29;20054;-83
2023/10/12 12:46:33;;;;;;;10.80;2.55;;;14.30;99.90;;;;;;4900329;29;20052;-83
2023/10/12 12:48:59;;;;;;;11.48;3.35;;;14.30;99.90;;;;;;4899591;29;20056;-83
2023/10/12 12:51:24;;;;;;;15.80;3.15;;;14.50;99.90;;;;;;4899276;29;20401;-83
2023/10/12 12:53:52;;;;;;;13.35;2.85;;;14.70;99.90;;;;;;4899624;29;20075;-83
2023/10/12 12:56:20;;;;;;;12.55;2.90;;;15.10;99.90;;;;;;4899742;29;20040;-83
2023/10/12 12:58:49;;;;;;;9.88;2.80;;;14.90;99.90;;;;;;4899384;29;20440;-83
2023/10/12 13:01:26;;;;;;;11.35;3.20;;;14.40;99.90;;;;;;4899375;29;20048;-83
2023/10/12 13:03:54;;;;;;;13.77;2.90;;;14.30;99.90;;;;;;4899141;29;20407;-83
2023/10/12 13:06:20;;;;;;;14.73;3.47;;;14.70;99.90;;;;;;4898675;29;20055;-83
2023/10/12 13:08:52;;;;;;;12.07;3.00;;;14.30;99.90;;;;;;4899614;29;20048;-83
2023/10/12 13:11:36;;;;;;;14.73;3.03;;;14.60;99.90;;;;;;4898530;29;20083;-83
2023/10/12 13:14:02;;;;;;;;;;;15.00;99.90;;;;;;4900100;29;20087;-83
2023/10/12 13:16:27;;;;;;;14.88;2.85;;;14.00;99.90;;;;;;4915033;29;19978;-83
2023/10/12 13:18:53;;;;;;;15.80;2.70;;;14.80;99.90;;;;;;4899114;29;20516;-83
2023/10/12 13:21:22;;;;;;;13.48;2.40;;;14.20;99.90;;;;;;4899125;29;20047;-83
2023/10/12 13:23:47;;;;;;;13.00;2.55;;;14.00;99.90;;;;;;4898273;29;20048;-81
2023/10/12 13:26:17;;;;;;;13.85;2.80;;;14.20;99.90;;;;;;4898876;29;20036;-82
2023/10/12 13:28:44;;;;;;;11.65;2.30;;;14.00;99.90;;;;;;4897518;29;20040;-82
2023/10/12 13:31:13;;;;;;;11.88;2.28;;;13.40;99.90;;;;;;4897854;29;20067;-82
2023/10/12 13:33:41;;;;;;;12.63;2.20;;;13.30;99.90;;;;;;4897554;29;20513;-82
2023/10/12 13:36:08;;;;;;;11.23;2.30;;;14.10;99.90;;;;;;4899242;29;20497;-82
2023/10/12 13:38:36;;;;;;;14.13;2.95;;;13.30;99.90;;;;;;4898997;29;20044;-82
2023/10/12 13:41:02;;;;;;;11.68;2.60;;;14.20;99.90;;;;;;4898258;29;20072;-82
2023/10/12 13:43:30;;;;;;;9.65;2.30;;;13.20;99.90;;;;;;4898687;29;20058;-82
2023/10/12 13:45:57;;;;;;;10.68;2.33;;;14.00;99.90;;;;;;4898965;29;20048;-83
2023/10/12 13:48:27;;;;;;;12.88;2.70;;;13.20;99.90;;;;;;4915056;29;20119;-82
2023/10/12 13:50:59;;;;;;;14.52;2.90;;;14.00;99.90;;;;;;4916216;29;20036;-82
2023/10/12 13:53:26;;;;;;;12.60;2.55;;;12.60;99.90;;;;;;4898070;29;20071;-82
2023/10/12 13:55:53;;;;;;;11.65;3.10;;;14.10;99.90;;;;;;4899217;29;20044;-82
2023/10/12 13:58:34;;;;;;;10.15;2.65;;;13.00;99.90;;;;;;4898570;29;20051;-82
2023/10/12 14:01:04;;;;;;;16.48;2.90;;;13.00;99.90;;;;;;4898305;29;20103;-82
2023/10/12 14:06:25;;;;;;;16.13;3.45;;;13.00;99.90;;;;;;4914695;29;20412;-82
2023/10/12 14:08:59;;;;;;;14.15;3.00;;;14.10;99.90;;;;;;4898011;29;20048;-82
2023/10/12 14:11:34;;;;;;;12.80;2.83;;;12.90;99.90;;;;;;4898074;29;20075;-82
2023/10/12 14:14:15;;;;;;;15.88;2.90;;;14.20;99.90;;;;;;4898449;29;20048;-82
2023/10/12 14:16:41;;;;;;;11.60;2.70;;;14.00;99.90;;;;;;4901931;29;20047;-82
2023/10/12 14:19:07;;;;;;;12.85;2.78;;;12.90;99.90;;;;;;4902795;29;20048;-81
2023/10/12 14:21:33;;;;;;;11.23;3.38;;;13.20;99.90;;;;;;4901537;29;20043;-81
2023/10/12 14:24:11;;;;;;;13.90;2.70;;;12.90;99.90;;;;;;4902308;29;20493;-83
2023/10/12 14:26:37;;;;;;;13.13;2.83;;;13.50;99.90;;;;;;4902573;29;20059;-82
2023/10/12 14:29:08;;;;;;;12.48;3.30;;;13.50;99.90;;;;;;4901860;29;20056;-82
2023/10/12 14:31:34;;;;;;;13.70;3.58;;;13.70;99.90;;;;;;4902251;29;20068;-82
2023/10/12 14:34:25;;;;;;;14.13;3.58;;;12.80;99.90;;;;;;4902274;29;20048;-84
2023/10/12 14:36:51;;;;;;;19.27;3.60;;;12.70;99.90;;;;;;4901504;29;20127;-83
2023/10/12 14:39:23;;;;;;;12.48;3.03;;;12.80;99.90;;;;;;4901479;29;20131;-82
2023/10/12 14:41:49;;;;;;;11.00;3.00;;;13.40;99.90;;;;;;4901748;29;20547;-82
2023/10/12 14:44:16;;;;;;;10.90;3.40;;;13.40;99.90;;;;;;4900613;29;20119;-82
2023/10/12 14:46:58;;;;;;;14.32;3.00;;;12.70;99.90;;;;;;4901526;29;20056;-83
2023/10/12 14:49:39;;;;;;;13.55;3.03;;;12.60;99.90;;;;;;4900878;29;20075;-82
2023/10/12 14:52:08;;;;;;;14.15;3.90;;;13.30;99.90;;;;;;4899921;29;20441;-82
2023/10/12 14:54:46;;;;;;;14.40;3.65;;;13.80;99.90;;;;;;4900742;29;20055;-82
2023/10/12 14:57:12;;;;;;;15.43;3.58;;;13.60;99.90;;;;;;4900541;29;20048;-81
2023/10/12 14:59:37;;;;;;;14.55;3.60;;;13.70;99.90;;;;;;4900629;29;20044;-82
2023/10/12 15:02:18;;;;;;;14.80;3.30;;;13.30;99.90;;;;;;4900421;29;20043;-83
2023/10/12 15:04:44;;;;;;;10.52;3.25;;;13.70;99.90;;;;;;4900350;29;20191;-83
2023/10/12 15:07:09;;;;;;;13.98;3.20;;;13.20;99.90;;;;;;4900256;29;20445;-83
2023/10/12 15:09:35;;;;;;;13.50;3.63;;;12.60;99.90;;;;;;4900713;29;20488;-83
2023/10/12 15:12:05;;;;;;;15.85;3.58;;;13.30;99.90;;;;;;4900195;29;20044;-84
2023/10/12 15:14:34;;;;;;;13.27;3.40;;;12.60;99.90;;;;;;4901100;29;20090;-83
2023/10/12 15:17:00;;;;;;;13.98;3.80;;;12.50;99.90;;;;;;4901386;29;20040;-83
2023/10/12 15:19:27;;;;;;;11.32;3.50;;;12.50;99.90;;;;;;4900538;29;20103;-83
2023/10/12 15:22:06;;;;;;;14.65;4.18;;;12.40;99.90;;;;;;4933044;29;20468;-83
2023/10/12 15:24:40;;;;;;;13.98;3.97;;;12.70;99.90;;;;;;4901483;29;20052;-83
2023/10/12 15:27:06;;;;;;;15.57;3.95;;;13.50;99.90;;;;;;4900368;29;20052;-83
2023/10/12 15:29:32;;;;;;;14.00;3.72;;;12.70;99.90;;;;;;4901136;29;20244;-83
2023/10/12 15:31:58;;;;;;;16.00;4.35;;;13.40;99.90;;;;;;4899494;29;20056;-82
2023/10/12 15:34:27;;;;;;;15.32;3.83;;;12.50;99.90;;;;;;4901102;29;20052;-77
2023/10/12 15:36:52;;;;;;;12.98;3.72;;;12.50;99.90;;;;;;4899810;29;20128;-83
2023/10/12 15:39:18;;;;;;;16.60;4.00;;;13.30;99.90;;;;;;4899792;29;20140;-85
2023/10/12 15:41:44;;;;;;;17.75;4.45;;;13.40;99.90;;;;;;4898700;29;20072;-83
2023/10/12 15:44:09;;;;;;;17.98;4.30;;;12.60;99.90;;;;;;4898043;29;20456;-83
2023/10/12 15:46:35;;;;;;;15.48;4.28;;;13.50;99.90;;;;;;4899434;29;20047;-82